Time;durP1;ratioP1;P1;durP2;ratioP2;P2;SDS_P1;SDS_P2;PMS_P1;PMS_P2;Temp;Humidity;BMP_temperature;BMP_pressure;BME280_temperature;BME280_humidity;BME280_pressure;Samples;Min_cycle;Max_cycle;Signal;HPM_P1;HPM_P2
2021/04/07 00:02:24;;;;;;;4.00;3.67;;;-0.20;99.90;;;;;;5033024;28;20191;-85
2021/04/07 00:05:07;;;;;;;3.70;3.40;;;-0.40;99.90;;;;;;5032837;28;20958;-84
2021/04/07 00:07:32;;;;;;;3.27;2.97;;;-0.30;99.90;;;;;;5034221;28;20204;-85
2021/04/07 00:09:59;;;;;;;2.30;1.50;;;-0.10;99.90;;;;;;5032525;28;20844;-84
2021/04/07 00:12:25;;;;;;;3.93;3.20;;;-0.10;99.90;;;;;;5032480;28;20701;-84
2021/04/07 00:14:50;;;;;;;5.87;4.00;;;0.00;99.90;;;;;;5032816;28;20439;-84
2021/04/07 00:17:16;;;;;;;4.73;4.33;;;0.00;99.90;;;;;;5033065;28;20254;-84
2021/04/07 00:19:42;;;;;;;5.60;4.40;;;0.00;99.90;;;;;;5033000;28;20551;-84
2021/04/07 00:22:07;;;;;;;4.80;4.03;;;0.20;99.90;;;;;;5032668;28;20177;-84
2021/04/07 00:24:33;;;;;;;5.07;4.67;;;-0.30;99.90;;;;;;5032003;28;20263;-84
2021/04/07 00:27:05;;;;;;;6.43;4.40;;;-0.10;99.90;;;;;;5032561;28;20185;-84
2021/04/07 00:29:31;;;;;;;6.50;2.80;;;0.00;99.90;;;;;;5032696;28;20176;-84
2021/04/07 00:31:56;;;;;;;3.20;2.90;;;-0.30;99.90;;;;;;5032609;28;20423;-84
2021/04/07 00:34:22;;;;;;;3.47;2.97;;;0.00;99.90;;;;;;5032331;28;20223;-84
2021/04/07 00:36:47;;;;;;;3.00;2.60;;;-0.10;99.90;;;;;;5031550;28;20536;-84
2021/04/07 00:39:13;;;;;;;3.63;3.33;;;-0.40;99.90;;;;;;5031719;28;20192;-84
2021/04/07 00:41:38;;;;;;;4.50;3.70;;;0.10;99.90;;;;;;5031978;28;20183;-84
2021/04/07 00:44:04;;;;;;;4.23;3.80;;;-0.10;99.90;;;;;;5032136;28;20188;-83
2021/04/07 00:46:37;;;;;;;3.00;2.37;;;-0.20;99.90;;;;;;5031911;28;20177;-83
2021/04/07 00:49:03;;;;;;;6.03;4.67;;;-0.20;99.90;;;;;;5031882;28;20184;-83
2021/04/07 00:51:29;;;;;;;3.50;2.60;;;0.00;99.90;;;;;;5031709;28;20443;-83
2021/04/07 00:53:54;;;;;;;4.00;2.50;;;-0.60;99.90;;;;;;5031802;28;20556;-83
2021/04/07 00:56:21;;;;;;;5.33;4.10;;;-0.60;99.90;;;;;;5033209;28;20644;-83
2021/04/07 00:58:46;;;;;;;4.63;4.13;;;-0.30;99.90;;;;;;5031840;28;20522;-83
2021/04/07 01:01:12;;;;;;;3.97;3.57;;;-0.60;99.90;;;;;;5031895;28;20502;-83
2021/04/07 01:03:38;;;;;;;5.17;4.60;;;-0.20;99.90;;;;;;5031702;28;20187;-83
2021/04/07 01:06:04;;;;;;;3.90;2.63;;;-0.40;99.90;;;;;;5031608;28;20181;-83
2021/04/07 01:08:30;;;;;;;3.90;3.53;;;-0.20;99.90;;;;;;5031873;28;20463;-83
2021/04/07 01:10:56;;;;;;;7.10;4.10;;;-0.60;99.90;;;;;;5031612;28;20505;-84
2021/04/07 01:13:22;;;;;;;5.90;5.30;;;-0.20;99.90;;;;;;5032864;28;20466;-84
2021/04/07 01:15:47;;;;;;;7.37;5.93;;;-0.30;99.90;;;;;;5031423;28;20176;-84
2021/04/07 01:18:13;;;;;;;3.13;2.87;;;-0.20;99.90;;;;;;5031516;28;20177;-83
2021/04/07 01:20:40;;;;;;;8.00;6.43;;;-0.40;99.90;;;;;;5031490;28;20180;-82
2021/04/07 01:23:05;;;;;;;5.40;4.17;;;-0.40;99.90;;;;;;5031131;28;20176;-84
2021/04/07 01:25:31;;;;;;;5.07;4.20;;;-0.80;99.90;;;;;;5031329;28;20514;-83
2021/04/07 01:27:58;;;;;;;3.80;3.00;;;-0.70;99.90;;;;;;5031388;28;20594;-84
2021/04/07 01:30:25;;;;;;;4.63;4.23;;;-0.70;99.90;;;;;;5031356;28;20176;-84
2021/04/07 01:32:50;;;;;;;8.33;5.93;;;-0.40;99.90;;;;;;5031555;28;20490;-84
2021/04/07 01:35:17;;;;;;;3.77;3.10;;;-0.50;99.90;;;;;;5032398;28;20466;-83
2021/04/07 01:37:43;;;;;;;4.23;3.90;;;-0.90;99.90;;;;;;5032063;28;20177;-84
2021/04/07 01:40:14;;;;;;;5.63;5.17;;;-0.30;99.90;;;;;;5032879;28;20435;-83
2021/04/07 01:42:42;;;;;;;5.97;5.33;;;-0.60;99.90;;;;;;5030952;28;20412;-84
2021/04/07 01:45:08;;;;;;;5.90;4.27;;;-0.30;99.90;;;;;;5031432;28;20415;-83
2021/04/07 01:47:35;;;;;;;8.63;5.63;;;-0.40;99.90;;;;;;5032461;28;20407;-83
2021/04/07 01:50:03;;;;;;;6.70;4.17;;;-0.40;99.90;;;;;;5031327;28;20497;-83
2021/04/07 01:52:29;;;;;;;4.87;4.37;;;-0.30;99.90;;;;;;5032564;28;20423;-83
2021/04/07 01:54:58;;;;;;;4.97;4.47;;;-0.80;99.90;;;;;;5031034;28;20427;-84
2021/04/07 01:57:24;;;;;;;8.80;7.20;;;-0.40;99.90;;;;;;5031358;28;20450;-83
2021/04/07 01:59:49;;;;;;;6.53;4.40;;;-0.50;99.90;;;;;;5030997;28;20454;-83
2021/04/07 02:02:15;;;;;;;4.47;3.53;;;-0.40;99.90;;;;;;5031212;28;20659;-83
2021/04/07 02:04:41;;;;;;;4.13;3.83;;;-0.50;99.90;;;;;;5030983;28;20306;-83
2021/04/07 02:07:15;;;;;;;7.57;6.23;;;-0.90;99.90;;;;;;5031015;28;20241;-79
2021/04/07 02:09:42;;;;;;;8.07;6.30;;;-0.50;99.90;;;;;;5030285;28;20470;-83
2021/04/07 02:12:08;;;;;;;5.00;4.20;;;-0.30;99.90;;;;;;5031090;28;20457;-83
2021/04/07 02:14:34;;;;;;;6.43;4.90;;;-1.00;99.90;;;;;;5032198;28;20561;-83
2021/04/07 02:17:03;;;;;;;6.50;4.83;;;-0.90;99.90;;;;;;5031184;28;20538;-80
2021/04/07 02:19:30;;;;;;;5.23;4.03;;;-0.70;99.90;;;;;;5032280;28;20415;-83
2021/04/07 02:22:12;;;;;;;9.50;7.60;;;-0.50;99.90;;;;;;5030338;28;20427;-84
2021/04/07 02:24:43;;;;;;;8.80;6.73;;;-0.20;99.90;;;;;;5030982;28;20887;-83
2021/04/07 02:27:20;;;;;;;4.23;3.90;;;-0.30;99.90;;;;;;5030892;28;20426;-82
2021/04/07 02:29:56;;;;;;;10.90;6.73;;;-0.40;99.90;;;;;;5031120;28;20423;-85
2021/04/07 02:32:24;;;;;;;6.67;6.03;;;-0.20;99.90;;;;;;5030745;28;20438;-82
2021/04/07 02:34:50;;;;;;;4.80;4.10;;;-0.10;99.90;;;;;;5030469;28;20447;-83
2021/04/07 02:37:17;;;;;;;7.43;6.53;;;0.00;99.90;;;;;;5029869;28;20989;-82
2021/04/07 02:39:44;;;;;;;7.03;6.17;;;-0.20;99.90;;;;;;5030948;28;20435;-83
2021/04/07 02:42:10;;;;;;;7.30;5.57;;;-0.10;99.90;;;;;;5030531;28;20473;-83
2021/04/07 02:44:37;;;;;;;5.73;5.20;;;-0.30;99.90;;;;;;5031583;28;20455;-83
2021/04/07 02:47:03;;;;;;;9.83;5.60;;;-0.60;99.90;;;;;;5031619;28;20404;-82
2021/04/07 02:49:29;;;;;;;6.33;4.07;;;-0.50;99.90;;;;;;5034639;28;20795;-83
2021/04/07 02:51:55;;;;;;;9.97;6.07;;;-0.10;99.90;;;;;;5034494;28;20419;-83
2021/04/07 02:54:21;;;;;;;4.87;4.37;;;0.00;99.90;;;;;;5035387;28;20489;-83
2021/04/07 02:56:48;;;;;;;3.17;2.97;;;-0.40;99.90;;;;;;5034514;28;20215;-83
2021/04/07 02:59:13;;;;;;;8.53;6.93;;;-0.40;99.90;;;;;;5035532;28;20752;-83
2021/04/07 03:01:39;;;;;;;5.03;4.50;;;-0.10;99.90;;;;;;5033769;28;20427;-84
2021/04/07 03:04:05;;;;;;;5.67;4.70;;;-0.30;99.90;;;;;;5034464;28;20275;-83
2021/04/07 03:06:30;;;;;;;5.17;4.23;;;-0.10;99.90;;;;;;5034343;28;20208;-84
2021/04/07 03:08:56;;;;;;;6.30;5.70;;;-0.60;99.90;;;;;;5033878;28;20235;-84
2021/04/07 03:11:22;;;;;;;5.40;4.90;;;-0.20;99.90;;;;;;5035712;28;20314;-84
2021/04/07 03:13:48;;;;;;;6.20;4.20;;;0.00;99.90;;;;;;5034003;28;20622;-84
2021/04/07 03:16:13;;;;;;;4.90;3.70;;;-0.10;99.90;;;;;;5035650;28;20450;-81
2021/04/07 03:18:39;;;;;;;4.50;3.97;;;-0.40;99.90;;;;;;5034126;28;20181;-84
2021/04/07 03:21:05;;;;;;;4.47;3.80;;;0.10;99.90;;;;;;5034916;28;20296;-83
2021/04/07 03:23:31;;;;;;;8.53;4.10;;;0.10;99.90;;;;;;5034189;28;20195;-83
2021/04/07 03:25:56;;;;;;;7.10;5.00;;;-0.40;99.90;;;;;;5050424;28;20814;-84
2021/04/07 03:28:23;;;;;;;3.27;2.93;;;-0.40;99.90;;;;;;5033479;28;20203;-83
2021/04/07 03:30:51;;;;;;;5.77;3.83;;;0.00;99.90;;;;;;5033749;28;20176;-82
2021/04/07 03:33:29;;;;;;;4.40;3.23;;;-0.30;99.90;;;;;;5033438;28;20461;-84
2021/04/07 03:35:56;;;;;;;3.23;2.70;;;-0.30;99.90;;;;;;5033623;28;20446;-83
2021/04/07 03:38:22;;;;;;;4.23;2.73;;;0.00;99.90;;;;;;5033056;28;20439;-84
2021/04/07 03:40:48;;;;;;;7.60;4.10;;;-0.10;99.90;;;;;;5036282;28;20441;-84
2021/04/07 03:43:16;;;;;;;6.33;4.50;;;-0.10;99.90;;;;;;5033322;28;20469;-84
2021/04/07 03:45:49;;;;;;;5.37;3.50;;;0.00;99.90;;;;;;5033458;28;20465;-84
2021/04/07 03:48:17;;;;;;;6.37;4.27;;;-0.30;99.90;;;;;;5033767;28;20428;-84
2021/04/07 03:50:43;;;;;;;2.50;1.70;;;0.10;99.90;;;;;;5032900;28;20472;-84
2021/04/07 03:53:10;;;;;;;7.53;3.20;;;0.00;99.90;;;;;;5034945;28;20451;-84
2021/04/07 03:55:37;;;;;;;1.30;1.20;;;-0.10;99.90;;;;;;5034194;28;20493;-84
2021/04/07 03:58:02;;;;;;;2.33;2.13;;;-0.10;99.90;;;;;;5032990;28;20411;-83
2021/04/07 04:00:29;;;;;;;7.07;3.37;;;-0.10;99.90;;;;;;5032379;28;20485;-83
2021/04/07 04:02:54;;;;;;;5.70;3.00;;;-0.40;99.90;;;;;;5032769;28;20837;-82
2021/04/07 04:05:20;;;;;;;4.70;3.70;;;-0.60;99.90;;;;;;5032700;28;20416;-83
2021/04/07 04:07:46;;;;;;;4.43;3.33;;;-0.20;99.90;;;;;;5033851;28;20616;-83
2021/04/07 04:10:13;;;;;;;3.83;3.00;;;-0.20;99.90;;;;;;5035050;28;20351;-83
2021/04/07 04:12:39;;;;;;;2.03;1.93;;;0.10;99.90;;;;;;5034537;28;20636;-84
2021/04/07 04:15:09;;;;;;;4.33;2.20;;;-0.60;99.90;;;;;;5033497;28;20509;-84
2021/04/07 04:17:35;;;;;;;4.27;3.70;;;-0.20;99.90;;;;;;5032752;28;20947;-83
2021/04/07 04:20:00;;;;;;;9.30;8.40;;;-0.40;99.90;;;;;;5032337;28;20415;-83
2021/04/07 04:22:26;;;;;;;7.93;4.40;;;0.00;99.90;;;;;;5034776;28;20411;-83
2021/04/07 04:24:52;;;;;;;4.23;3.83;;;0.10;99.90;;;;;;5032752;28;20204;-83
2021/04/07 04:27:17;;;;;;;9.90;3.90;;;0.10;99.90;;;;;;5032381;28;20544;-84
2021/04/07 04:29:43;;;;;;;3.77;2.40;;;-0.30;99.90;;;;;;5034748;28;20173;-83
2021/04/07 04:32:08;;;;;;;3.47;3.17;;;0.10;99.90;;;;;;5034649;28;20219;-84
2021/04/07 04:34:34;;;;;;;4.63;3.77;;;0.00;99.90;;;;;;5032399;28;20642;-85
2021/04/07 04:36:59;;;;;;;4.30;3.77;;;-0.40;99.90;;;;;;5032182;28;20901;-84
2021/04/07 04:39:25;;;;;;;4.60;3.33;;;-0.10;99.90;;;;;;5032734;28;20199;-83
2021/04/07 04:41:51;;;;;;;6.40;2.23;;;0.10;99.90;;;;;;5033673;28;20188;-84
2021/04/07 04:44:16;;;;;;;5.60;4.33;;;0.10;99.90;;;;;;5033764;28;20191;-83
2021/04/07 04:46:42;;;;;;;5.23;3.80;;;-0.10;99.90;;;;;;5034705;28;20243;-84
2021/04/07 04:49:07;;;;;;;6.63;2.93;;;0.00;99.90;;;;;;5047467;28;20192;-83
2021/04/07 04:51:33;;;;;;;2.90;2.27;;;0.10;99.90;;;;;;5032281;28;20316;-82
2021/04/07 04:53:58;;;;;;;4.40;2.53;;;0.10;99.90;;;;;;5031728;28;20234;-84
2021/04/07 04:56:24;;;;;;;3.80;2.50;;;-0.30;99.90;;;;;;5034580;28;20223;-83
2021/04/07 04:58:50;;;;;;;8.13;3.00;;;0.10;99.90;;;;;;5034061;28;20196;-84
2021/04/07 05:01:15;;;;;;;1.90;1.70;;;-0.20;99.90;;;;;;5033308;28;20183;-81
2021/04/07 05:03:41;;;;;;;7.73;3.80;;;0.10;99.90;;;;;;5030627;28;20281;-79
2021/04/07 05:06:06;;;;;;;4.17;3.47;;;-0.30;99.90;;;;;;5031903;28;20180;-82
2021/04/07 05:08:32;;;;;;;2.97;1.97;;;0.00;99.90;;;;;;5034423;28;20250;-85
2021/04/07 05:10:57;;;;;;;4.40;3.50;;;0.10;99.90;;;;;;5031977;28;20185;-84
2021/04/07 05:13:23;;;;;;;4.53;3.43;;;-0.20;99.90;;;;;;5034324;28;20299;-82
2021/04/07 05:15:49;;;;;;;2.60;1.80;;;-0.30;99.90;;;;;;5032572;28;20182;-83
2021/04/07 05:18:17;;;;;;;6.13;3.93;;;0.10;99.90;;;;;;5032908;28;20209;-84
2021/04/07 05:20:43;;;;;;;5.93;4.90;;;0.20;99.90;;;;;;5031589;28;20540;-83
2021/04/07 05:23:10;;;;;;;5.17;3.70;;;0.30;99.90;;;;;;5031776;28;21002;-83
2021/04/07 05:25:37;;;;;;;2.30;2.10;;;0.10;99.90;;;;;;5031489;28;20426;-84
2021/04/07 05:28:08;;;;;;;5.77;5.10;;;0.00;99.90;;;;;;5033071;28;21004;-83
2021/04/07 05:33:23;;;;;;;2.37;2.10;;;0.20;99.90;;;;;;5033835;28;20478;-84
2021/04/07 05:35:49;;;;;;;9.13;4.40;;;0.10;99.90;;;;;;5032471;28;20421;-81
2021/04/07 05:38:17;;;;;;;3.60;2.57;;;-0.30;99.90;;;;;;5033102;28;20467;-82
2021/04/07 05:40:42;;;;;;;6.50;4.00;;;-0.20;99.90;;;;;;5031150;28;20439;-84
2021/04/07 05:43:08;;;;;;;3.43;3.13;;;-0.40;99.90;;;;;;5031222;28;20443;-84
2021/04/07 05:45:38;;;;;;;5.70;4.40;;;0.20;99.90;;;;;;5024464;28;20313;-79
2021/04/07 05:48:05;;;;;;;5.60;4.03;;;0.20;99.90;;;;;;5048666;28;20311;-82
2021/04/07 05:50:31;;;;;;;6.73;4.20;;;0.30;99.90;;;;;;5046986;28;20472;-81
2021/04/07 05:52:56;;;;;;;4.80;4.10;;;0.50;99.90;;;;;;5046959;28;20467;-86
2021/04/07 05:55:22;;;;;;;3.77;3.20;;;0.10;99.90;;;;;;5047346;28;20530;-85
2021/04/07 05:58:05;;;;;;;2.88;1.73;;;0.50;99.90;;;;;;5045443;28;20483;-84
2021/04/07 06:00:32;;;;;;;7.80;3.10;;;0.40;99.90;;;;;;5041568;28;20189;-84
2021/04/07 06:03:00;;;;;;;2.80;2.57;;;0.40;99.90;;;;;;5021675;28;20431;-84
2021/04/07 06:05:28;;;;;;;2.47;2.20;;;0.50;99.90;;;;;;5046239;28;20450;-85
2021/04/07 06:07:55;;;;;;;3.20;2.90;;;0.60;99.90;;;;;;5047396;28;20428;-85
2021/04/07 06:10:21;;;;;;;5.00;2.40;;;0.50;99.90;;;;;;5047710;28;20486;-82
2021/04/07 06:12:47;;;;;;;4.43;2.73;;;0.60;99.90;;;;;;5032088;28;20466;-85
2021/04/07 06:15:14;;;;;;;3.73;3.40;;;0.10;99.90;;;;;;5030253;28;20443;-84
2021/04/07 06:17:42;;;;;;;4.50;1.97;;;0.50;99.90;;;;;;5034440;28;20188;-84
2021/04/07 06:20:08;;;;;;;3.63;3.27;;;0.00;99.90;;;;;;5031846;28;20424;-84
2021/04/07 06:22:34;;;;;;;4.97;2.27;;;0.60;99.90;;;;;;5031536;28;20427;-85
2021/04/07 06:25:01;;;;;;;3.37;3.07;;;0.40;99.90;;;;;;5050924;28;20434;-84
2021/04/07 06:27:26;;;;;;;2.20;1.97;;;0.50;99.90;;;;;;5050180;28;20627;-81
2021/04/07 06:29:52;;;;;;;2.30;1.90;;;0.30;99.90;;;;;;5050909;28;20428;-83
2021/04/07 06:32:18;;;;;;;2.50;2.23;;;0.40;99.90;;;;;;5050756;28;20415;-84
2021/04/07 06:34:44;;;;;;;3.13;2.83;;;0.40;99.90;;;;;;5030284;28;20472;-85
2021/04/07 06:37:09;;;;;;;3.40;2.60;;;0.70;99.90;;;;;;5017885;28;20264;-84
2021/04/07 06:39:35;;;;;;;2.70;1.93;;;1.10;99.90;;;;;;5034158;28;20196;-85
2021/04/07 06:42:01;;;;;;;2.37;1.90;;;2.00;99.90;;;;;;5034064;28;20177;-86
2021/04/07 06:44:27;;;;;;;5.20;2.37;;;1.90;99.90;;;;;;5033443;28;20269;-85
2021/04/07 06:46:57;;;;;;;3.40;3.10;;;2.70;99.90;;;;;;5034014;28;20200;-84
2021/04/07 06:49:24;;;;;;;4.73;2.97;;;2.20;99.90;;;;;;5034448;28;20181;-83
2021/04/07 06:51:54;;;;;;;3.53;2.93;;;2.00;99.90;;;;;;5034578;28;20446;-83
2021/04/07 06:54:22;;;;;;;3.70;2.70;;;1.80;99.90;;;;;;5033130;28;20877;-84
2021/04/07 06:56:49;;;;;;;2.63;1.87;;;1.40;99.90;;;;;;5034394;28;21040;-85
2021/04/07 06:59:15;;;;;;;1.33;1.23;;;1.70;99.90;;;;;;5034018;28;20435;-84
2021/04/07 07:01:41;;;;;;;1.07;1.07;;;1.30;99.90;;;;;;5033675;28;20861;-85
2021/04/07 07:04:07;;;;;;;1.53;1.43;;;1.00;99.90;;;;;;5032029;28;20603;-85
2021/04/07 07:06:34;;;;;;;2.60;2.23;;;1.30;99.90;;;;;;5034524;28;20454;-85
2021/04/07 07:09:10;;;;;;;3.87;2.50;;;1.70;99.90;;;;;;5049000;28;20310;-83
2021/04/07 07:11:36;;;;;;;4.40;2.63;;;1.80;99.90;;;;;;5033328;28;20439;-84
2021/04/07 07:14:02;;;;;;;1.90;1.53;;;1.90;99.90;;;;;;5032946;28;20544;-85
2021/04/07 07:16:28;;;;;;;2.77;1.83;;;2.50;99.90;;;;;;5030267;28;20181;-86
2021/04/07 07:18:54;;;;;;;5.30;3.33;;;3.10;99.90;;;;;;5031814;28;20479;-86
2021/04/07 07:21:21;;;;;;;2.83;2.63;;;3.20;99.90;;;;;;5049427;28;20438;-85
2021/04/07 07:23:48;;;;;;;2.20;1.97;;;2.80;99.90;;;;;;5048504;28;20188;-85
2021/04/07 07:26:15;;;;;;;4.83;2.30;;;3.10;99.90;;;;;;5032571;28;20518;-85
2021/04/07 07:28:42;;;;;;;3.00;2.70;;;2.50;99.90;;;;;;5013408;28;20432;-85
2021/04/07 07:31:21;;;;;;;1.60;1.50;;;2.30;99.90;;;;;;5029255;28;20839;-84
2021/04/07 07:33:47;;;;;;;3.27;2.37;;;2.30;99.90;;;;;;5045587;28;20500;-84
2021/04/07 07:36:14;;;;;;;4.10;2.80;;;2.10;99.90;;;;;;5022454;28;20423;-84
2021/04/07 07:38:48;;;;;;;2.37;2.17;;;1.90;99.90;;;;;;5029941;28;20451;-85
2021/04/07 07:41:17;;;;;;;5.70;2.70;;;2.00;99.90;;;;;;5042332;28;20423;-85
2021/04/07 07:43:43;;;;;;;6.10;2.83;;;1.80;99.90;;;;;;5014584;28;20443;-84
2021/04/07 07:46:13;;;;;;;2.53;2.33;;;2.40;99.90;;;;;;5037979;28;20931;-84
2021/04/07 07:48:40;;;;;;;6.20;1.97;;;2.10;99.90;;;;;;5033481;28;20226;-84
2021/04/07 07:51:15;;;;;;;4.73;2.00;;;2.50;99.90;;;;;;5025124;28;20435;-84
2021/04/07 07:53:44;;;;;;;3.37;2.37;;;3.30;99.90;;;;;;5031075;28;20535;-83
2021/04/07 07:56:10;;;;;;;2.30;1.73;;;3.60;99.00;;;;;;5032234;28;20439;-84
2021/04/07 07:58:41;;;;;;;9.30;2.80;;;4.30;84.50;;;;;;5048379;28;20446;-84
2021/04/07 08:01:10;;;;;;;2.70;2.10;;;4.20;63.70;;;;;;5032843;28;20775;-84
2021/04/07 08:03:35;;;;;;;45.80;7.13;;;3.40;32.90;;;;;;5047259;28;20432;-84
2021/04/07 08:06:01;;;;;;;4.50;2.17;;;3.40;59.00;;;;;;5042266;28;20884;-84
2021/04/07 08:08:28;;;;;;;9.10;3.17;;;3.60;51.30;;;;;;5033188;28;20275;-84
2021/04/07 08:10:54;;;;;;;3.30;1.93;;;3.80;60.30;;;;;;5031498;28;20463;-85
2021/04/07 08:13:21;;;;;;;19.63;3.50;;;2.80;45.50;;;;;;5028139;28;20534;-83
2021/04/07 08:15:48;;;;;;;2.50;1.97;;;3.00;53.50;;;;;;5031300;28;20438;-85
2021/04/07 08:18:14;;;;;;;4.20;2.40;;;2.10;71.00;;;;;;5030571;28;20443;-82
2021/04/07 08:20:40;;;;;;;4.37;1.93;;;2.60;75.10;;;;;;5032486;28;20854;-84
2021/04/07 08:23:08;;;;;;;7.60;2.27;;;2.20;75.60;;;;;;5032250;28;20427;-83
2021/04/07 08:25:35;;;;;;;5.07;3.27;;;1.90;92.40;;;;;;5031633;28;20212;-84
2021/04/07 08:28:03;;;;;;;1.10;1.00;;;2.30;99.30;;;;;;5032787;28;20448;-83
2021/04/07 08:30:29;;;;;;;7.13;3.47;;;2.60;99.90;;;;;;5032410;28;20945;-84
2021/04/07 08:32:55;;;;;;;2.47;1.27;;;2.70;92.10;;;;;;5030809;28;20458;-81
2021/04/07 08:35:23;;;;;;;2.90;1.93;;;3.10;77.80;;;;;;5032898;28;20644;-83
2021/04/07 08:38:04;;;;;;;6.50;2.70;;;2.80;74.40;;;;;;5033082;28;20477;-78
2021/04/07 08:40:42;;;;;;;2.50;1.73;;;2.60;93.90;;;;;;5032118;28;20403;-82
2021/04/07 08:43:09;;;;;;;3.40;2.37;;;2.20;99.90;;;;;;5028489;28;20431;-83
2021/04/07 08:45:45;;;;;;;2.77;2.57;;;2.20;99.90;;;;;;5027650;28;20518;-82
2021/04/07 08:48:25;;;;;;;2.10;1.63;;;1.90;99.90;;;;;;5028904;28;20437;-80
2021/04/07 08:51:09;;;;;;;4.73;2.80;;;1.90;99.90;;;;;;5030280;28;20446;-82
2021/04/07 08:53:40;;;;;;;4.50;2.47;;;1.10;99.90;;;;;;5030455;28;20554;-83
2021/04/07 08:56:11;;;;;;;3.67;3.13;;;1.80;99.90;;;;;;5048861;28;20419;-85
2021/04/07 08:58:50;;;;;;;3.33;2.90;;;2.00;99.90;;;;;;5029158;28;20434;-83
2021/04/07 09:01:37;;;;;;;3.30;2.83;;;2.10;99.90;;;;;;5031465;28;21013;-82
2021/04/07 09:04:18;;;;;;;8.40;4.10;;;2.30;99.90;;;;;;5029396;28;20808;-84
2021/04/07 09:07:01;;;;;;;2.40;1.87;;;2.10;99.90;;;;;;5032247;28;20427;-83
2021/04/07 09:09:33;;;;;;;3.80;2.80;;;2.30;99.90;;;;;;5032741;28;20451;-84
2021/04/07 09:12:00;;;;;;;3.77;3.03;;;2.40;99.90;;;;;;5037661;28;20438;-80
2021/04/07 09:14:26;;;;;;;2.40;2.20;;;2.40;99.90;;;;;;5037062;28;20479;-85
2021/04/07 09:17:01;;;;;;;3.93;2.70;;;2.90;99.90;;;;;;5029756;28;20419;-84
2021/04/07 09:19:29;;;;;;;3.00;2.80;;;2.80;99.90;;;;;;5033676;28;20778;-83
2021/04/07 09:22:05;;;;;;;3.33;3.03;;;2.50;99.90;;;;;;5030247;28;20431;-81
2021/04/07 09:24:41;;;;;;;4.20;2.97;;;3.30;99.90;;;;;;5047873;28;20431;-83
2021/04/07 09:27:18;;;;;;;2.23;1.70;;;3.80;99.90;;;;;;5031328;28;20771;-84
2021/04/07 09:29:43;;;;;;;4.73;2.43;;;3.90;99.90;;;;;;5031504;28;20434;-82
2021/04/07 09:32:17;;;;;;;2.80;2.50;;;4.40;95.00;;;;;;5032836;28;20419;-84
2021/04/07 09:34:43;;;;;;;13.07;3.93;;;4.80;92.90;;;;;;5032264;28;20208;-74
2021/04/07 09:37:10;;;;;;;4.33;2.50;;;4.60;60.40;;;;;;5034808;28;20470;-83
2021/04/07 09:39:37;;;;;;;5.47;3.07;;;5.20;47.80;;;;;;5031521;28;20427;-84
2021/04/07 09:42:04;;;;;;;2.83;2.10;;;4.30;18.60;;;;;;5031746;28;20886;-83
2021/04/07 09:44:30;;;;;;;16.63;4.30;;;4.20;51.40;;;;;;5031557;28;20430;-83
2021/04/07 09:46:57;;;;;;;13.53;4.10;;;4.40;49.60;;;;;;5030972;28;20957;-84
2021/04/07 09:49:24;;;;;;;4.80;3.77;;;4.70;39.40;;;;;;5031545;28;20807;-80
2021/04/07 09:51:50;;;;;;;5.40;3.20;;;4.90;26.20;;;;;;5032933;28;20415;-83
2021/04/07 09:54:21;;;;;;;2.67;2.13;;;4.60;10.40;;;;;;5032150;28;20471;-83
2021/04/07 09:56:52;;;;;;;2.23;1.50;;;3.70;23.90;;;;;;5031916;28;20423;-83
2021/04/07 09:59:38;;;;;;;1.00;1.00;;;3.90;43.30;;;;;;5051633;28;20463;-84
2021/04/07 10:02:12;;;;;;;3.77;1.80;;;3.90;47.40;;;;;;5035244;28;20418;-83
2021/04/07 10:04:41;;;;;;;1.73;1.40;;;3.30;57.90;;;;;;5036123;28;20458;-83
2021/04/07 10:07:22;;;;;;;2.47;2.00;;;3.20;72.80;;;;;;5035173;28;20426;-82
2021/04/07 10:09:50;;;;;;;3.20;2.20;;;3.30;81.90;;;;;;5034886;28;20475;-82
2021/04/07 10:12:17;;;;;;;8.30;2.90;;;3.10;89.20;;;;;;5036859;28;20415;-83
2021/04/07 10:14:54;;;;;;;2.67;1.63;;;3.10;94.40;;;;;;5036050;28;20509;-82
2021/04/07 10:17:23;;;;;;;6.63;4.63;;;3.10;95.00;;;;;;5035092;28;21129;-83
2021/04/07 10:19:49;;;;;;;4.20;3.47;;;3.20;99.90;;;;;;5037601;28;20459;-82
2021/04/07 10:22:33;;;;;;;6.67;3.20;;;3.60;99.90;;;;;;5034743;28;20446;-82
2021/04/07 10:25:22;;;;;;;5.40;3.43;;;3.50;99.90;;;;;;5051797;28;20184;-82
2021/04/07 10:27:46;;;;;;;3.13;2.37;;;3.10;99.90;;;;;;5036380;28;20439;-85
2021/04/07 10:30:20;;;;;;;2.93;2.67;;;3.40;98.90;;;;;;5036077;28;20972;-84
2021/04/07 10:32:48;;;;;;;3.70;2.30;;;3.50;91.10;;;;;;5036191;28;20528;-84
2021/04/07 10:35:28;;;;;;;2.57;2.30;;;4.00;78.60;;;;;;5037692;28;20439;-84
2021/04/07 10:37:56;;;;;;;3.57;2.73;;;4.20;48.60;;;;;;5052440;28;20434;-82
2021/04/07 10:40:24;;;;;;;3.40;1.80;;;4.40;50.80;;;;;;5035292;28;20478;-85
2021/04/07 10:42:50;;;;;;;8.73;6.70;;;4.60;31.20;;;;;;5050549;28;20515;-79
2021/04/07 10:45:20;;;;;;;5.60;2.17;;;4.70;20.80;;;;;;5051553;28;20435;-83
2021/04/07 10:47:48;;;;;;;2.10;1.70;;;4.50;3.20;;;;;;5033357;28;20423;-82
2021/04/07 10:50:14;;;;;;;2.80;1.60;;;4.80;9.50;;;;;;5035012;28;20793;-82
2021/04/07 10:52:42;;;;;;;2.03;1.93;;;5.00;1.00;;;;;;5032850;28;20423;-83
2021/04/07 10:55:29;;;;;;;2.93;2.57;;;4.80;1.00;;;;;;5032119;28;20485;-82
2021/04/07 10:57:56;;;;;;;4.57;3.80;;;4.40;12.80;;;;;;5034147;28;20435;-84
2021/04/07 11:00:30;;;;;;;7.73;3.07;;;4.90;1.00;;;;;;5032639;28;20461;-83
2021/04/07 11:02:57;;;;;;;2.57;2.13;;;5.10;1.00;;;;;;5046272;28;20465;-84
2021/04/07 11:05:25;;;;;;;5.77;3.40;;;4.80;1.00;;;;;;5026324;28;20519;-77
2021/04/07 11:08:00;;;;;;;1.30;1.20;;;4.70;1.00;;;;;;5032386;28;20435;-83
2021/04/07 11:10:26;;;;;;;4.43;2.67;;;5.80;1.00;;;;;;5041054;28;20488;-83
2021/04/07 11:12:53;;;;;;;1.83;1.67;;;5.80;1.00;;;;;;5033476;28;20824;-83
2021/04/07 11:15:18;;;;;;;1.50;1.40;;;6.50;1.00;;;;;;5033650;28;20655;-85
2021/04/07 11:17:52;;;;;;;4.20;2.17;;;6.70;99.90;;;;;;5033420;28;20416;-84
2021/04/07 11:20:18;;;;;;;3.30;1.50;;;7.10;99.90;;;;;;5024912;28;20177;-84
2021/04/07 11:22:44;;;;;;;2.47;1.20;;;6.60;1.00;;;;;;5031894;28;20442;-83
2021/04/07 11:25:10;;;;;;;4.60;1.77;;;5.70;93.70;;;;;;5031078;28;20818;-84
2021/04/07 11:27:36;;;;;;;3.20;2.67;;;6.40;99.90;;;;;;5048060;28;20187;-82
2021/04/07 11:30:05;;;;;;;2.20;1.30;;;6.80;99.90;;;;;;5029800;28;20524;-83
2021/04/07 11:32:32;;;;;;;3.30;2.10;;;6.40;99.90;;;;;;5029254;28;20469;-78
2021/04/07 11:35:07;;;;;;;4.53;1.90;;;6.00;1.00;;;;;;5027897;28;20502;-82
2021/04/07 11:37:41;;;;;;;2.50;1.87;;;6.10;99.90;;;;;;5046093;28;21033;-82
2021/04/07 11:40:10;;;;;;;3.30;2.00;;;5.80;1.00;;;;;;5030767;28;20439;-84
2021/04/07 11:42:56;;;;;;;2.30;1.07;;;5.20;1.00;;;;;;5044238;28;20935;-82
2021/04/07 11:45:22;;;;;;;3.90;1.63;;;4.70;99.90;;;;;;5030810;28;20949;-83
2021/04/07 11:47:47;;;;;;;2.87;1.47;;;5.10;99.90;;;;;;5029120;28;20439;-83
2021/04/07 11:50:13;;;;;;;4.80;2.30;;;4.80;1.00;;;;;;5030869;28;20180;-83
2021/04/07 11:52:38;;;;;;;5.73;2.50;;;4.80;1.00;;;;;;5029873;28;20179;-83
2021/04/07 11:55:05;;;;;;;3.40;2.30;;;4.30;1.00;;;;;;5032568;28;20257;-82
2021/04/07 11:57:32;;;;;;;2.93;1.70;;;4.00;1.00;;;;;;5030713;28;20272;-83
2021/04/07 11:59:58;;;;;;;6.77;2.87;;;4.20;1.00;;;;;;5031080;28;20423;-82
2021/04/07 12:02:24;;;;;;;6.10;2.87;;;3.90;1.00;;;;;;5032283;28;20946;-82
2021/04/07 12:04:51;;;;;;;2.20;1.90;;;4.00;22.50;;;;;;5034395;28;20173;-83
2021/04/07 12:07:17;;;;;;;2.67;1.67;;;3.90;38.40;;;;;;5030961;28;20180;-82
2021/04/07 12:09:43;;;;;;;6.93;2.33;;;3.90;50.30;;;;;;5047788;28;20478;-82
2021/04/07 12:12:09;;;;;;;2.13;1.30;;;3.90;50.10;;;;;;5047184;28;20431;-82
2021/04/07 12:14:34;;;;;;;1.90;1.80;;;3.70;53.00;;;;;;5047112;28;20574;-83
2021/04/07 12:17:01;;;;;;;3.43;2.37;;;3.40;62.00;;;;;;5050065;28;20423;-84
2021/04/07 12:19:26;;;;;;;2.87;2.40;;;3.40;95.20;;;;;;5029796;28;20276;-82
2021/04/07 12:21:52;;;;;;;4.57;2.10;;;3.50;99.90;;;;;;5047939;28;20442;-83
2021/04/07 12:24:18;;;;;;;9.30;2.10;;;3.60;82.70;;;;;;5048887;28;20181;-86
2021/04/07 12:26:44;;;;;;;2.33;1.67;;;3.80;72.50;;;;;;5048302;28;20922;-84
2021/04/07 12:29:10;;;;;;;2.00;1.60;;;4.40;71.40;;;;;;5045633;28;20188;-84
2021/04/07 12:31:36;;;;;;;3.63;1.90;;;4.60;65.80;;;;;;5031377;28;20603;-83
2021/04/07 12:34:02;;;;;;;3.57;2.00;;;4.10;63.40;;;;;;5032085;28;20490;-83
2021/04/07 12:36:30;;;;;;;5.10;2.50;;;4.00;78.90;;;;;;5031505;28;20760;-83
2021/04/07 12:38:58;;;;;;;1.90;1.73;;;4.40;81.00;;;;;;5031306;28;20519;-82
2021/04/07 12:43:54;;;;;;;2.33;1.80;;;4.20;95.40;;;;;;5031577;28;20434;-83
2021/04/07 12:46:19;;;;;;;7.13;3.80;;;4.50;99.90;;;;;;5032619;28;20938;-82
2021/04/07 12:48:47;;;;;;;4.17;2.60;;;4.20;99.90;;;;;;5031912;28;20206;-84
2021/04/07 12:51:18;;;;;;;3.20;2.40;;;3.80;99.90;;;;;;5030651;28;20528;-83
2021/04/07 12:53:44;;;;;;;3.10;2.13;;;3.60;99.90;;;;;;5028898;28;20498;-83
2021/04/07 12:56:13;;;;;;;2.23;2.00;;;3.00;99.90;;;;;;5032249;28;20427;-82
2021/04/07 12:58:40;;;;;;;4.47;1.60;;;3.20;99.90;;;;;;5030414;28;20430;-84
2021/04/07 13:01:05;;;;;;;4.67;1.83;;;2.90;99.90;;;;;;5026444;28;20550;-84
2021/04/07 13:03:31;;;;;;;7.03;2.47;;;3.20;99.90;;;;;;5031275;28;20518;-85
2021/04/07 13:05:56;;;;;;;5.90;2.90;;;2.70;99.90;;;;;;5030516;28;20224;-85